Morada Nova de Minas, Brazil
Current Conditions -  °F | °C
As of 12:00 PM on Friday 19 Dec 2014 (Local Time) from SBLS Reporting Station
Few Clouds Few Clouds  
Wind Chill: 84°   Ceiling: Unl
Heat Index: 84°   Visibility: 6mi
Dew Point: 59°   Wind: 5mph
Humidity: 42%   Direction: 290°WNW
Pressure: 29.97"   Gusts: NA
Location:  18.6°S, 45.36°W
Report Text: SBLS 191400Z 29004KT 9999 FEW030 29/15 Q1015
Loading
Personal Weather Stations






























Interactive Weather Map New forecast layout! Learn more

10-Day Weather Forecast

Advertisements
Track Severe Weather on mobile